Lake Arthur, Louisiana
Current Conditions -  °F | °C
As of 6:35 AM on Monday 20 Oct 2014 (Local Time) from K3R7 Reporting Station
Clear Clear  
Wind Chill: 56°   Ceiling: Unl
Heat Index: 56°   Visibility: 10mi
Dew Point: 54°   Wind: 3mph
Humidity: 92%   Direction: 40°NE
Pressure: 30.04"   Gusts: NA
Location:  30.08°N, 92.67°W
Report Text: K3R7 201135Z AUTO 04003KT 10SM CLR 13/12 A3004 RMK AO2 T01320120
Loading
Personal Weather Stations






























Interactive Weather Map New forecast layout! Learn more

10-Day Weather Forecast

Advertisements
Track Severe Weather on mobile